createdAt,value
2019-05-07T00:01:54.974Z,5.15
2019-05-07T00:04:22.752Z,5.19
2019-05-07T00:06:52.797Z,5.10
2019-05-07T00:09:23.297Z,5.22
2019-05-07T00:11:53.378Z,5.09
2019-05-07T00:14:23.158Z,5.06
2019-05-07T00:16:53.451Z,5.03
2019-05-07T00:19:23.146Z,5.08
2019-05-07T00:21:52.790Z,5.06
2019-05-07T00:24:22.400Z,5.01
2019-05-07T00:26:53.208Z,4.90
2019-05-07T00:29:22.355Z,4.84
2019-05-07T00:31:52.328Z,4.90
2019-05-07T00:34:22.621Z,4.94
2019-05-07T00:37:06.757Z,4.93
2019-05-07T00:39:47.111Z,4.91
2019-05-07T00:42:22.175Z,4.91
2019-05-07T00:45:14.230Z,4.91
2019-05-07T00:47:32.806Z,4.93
2019-05-07T00:50:05.811Z,4.83
2019-05-07T00:52:34.752Z,4.79
2019-05-07T00:55:03.395Z,4.91
2019-05-07T00:57:32.449Z,4.90
2019-05-07T01:00:02.243Z,4.74
2019-05-07T01:02:32.339Z,4.76
2019-05-07T01:05:03.083Z,4.87
2019-05-07T01:07:32.476Z,4.82
2019-05-07T01:10:02.266Z,4.69
2019-05-07T01:12:32.831Z,4.76
2019-05-07T01:15:02.978Z,4.61
2019-05-07T01:17:33.472Z,4.63
2019-05-07T01:20:03.063Z,4.65
2019-05-07T01:22:33.062Z,4.55
2019-05-07T01:25:02.350Z,4.43
2019-05-07T01:27:32.254Z,4.49
2019-05-07T01:30:02.683Z,4.48
2019-05-07T01:32:49.684Z,4.43
2019-05-07T01:35:42.345Z,4.48
2019-05-07T01:38:12.322Z,4.39
2019-05-07T01:40:42.755Z,4.40
2019-05-07T01:43:12.297Z,4.27
2019-05-07T01:45:48.996Z,4.35
2019-05-07T01:48:15.384Z,4.33
2019-05-07T01:50:44.277Z,4.30
2019-05-07T01:53:12.991Z,4.19
2019-05-07T01:55:42.795Z,4.32
2019-05-07T01:58:12.599Z,4.28
2019-05-07T02:00:42.502Z,4.28
2019-05-07T02:03:18.434Z,4.25
2019-05-07T02:06:02.218Z,4.23
2019-05-07T02:09:06.118Z,4.20
2019-05-07T02:11:39.418Z,4.20
2019-05-07T02:14:08.402Z,4.25
2019-05-07T02:16:37.599Z,4.23
2019-05-07T02:19:06.227Z,4.16
2019-05-07T02:21:34.879Z,4.19
2019-05-07T02:24:03.527Z,4.19
2019-05-07T02:26:32.322Z,4.14
2019-05-07T02:29:02.753Z,4.17
2019-05-07T02:31:33.569Z,4.18
2019-05-07T02:34:03.082Z,4.14
2019-05-07T02:36:33.948Z,4.12
2019-05-07T02:39:18.166Z,4.18
2019-05-07T02:41:47.098Z,4.18
2019-05-07T02:44:15.728Z,4.20
2019-05-07T02:46:58.341Z,4.19
2019-05-07T02:49:35.891Z,4.21
2019-05-07T02:52:14.995Z,4.17
2019-05-07T02:55:03.963Z,4.11
2019-05-07T02:57:33.917Z,4.10
2019-05-07T03:00:04.571Z,4.07
2019-05-07T03:02:33.373Z,3.94
2019-05-07T03:05:05.320Z,3.98
2019-05-07T03:07:33.749Z,3.93
2019-05-07T03:10:03.571Z,3.90
2019-05-07T03:12:33.716Z,3.86
2019-05-07T03:15:04.453Z,3.85
2019-05-07T03:17:33.593Z,3.80
2019-05-07T03:20:03.977Z,3.82
2019-05-07T03:22:33.788Z,3.79
2019-05-07T03:25:15.561Z,3.81
2019-05-07T03:27:44.196Z,3.75
2019-05-07T03:30:35.550Z,3.75
2019-05-07T03:33:07.934Z,3.62
2019-05-07T03:35:45.913Z,3.71
2019-05-07T03:38:13.155Z,3.79
2019-05-07T03:40:44.526Z,3.60
2019-05-07T03:43:13.927Z,3.62
2019-05-07T03:45:57.842Z,3.57
2019-05-07T03:48:27.973Z,3.57
2019-05-07T03:50:57.215Z,3.57
2019-05-07T03:53:26.405Z,3.65
2019-05-07T03:55:55.412Z,3.64
2019-05-07T03:58:24.142Z,3.63
2019-05-07T04:00:53.755Z,3.72
2019-05-07T04:03:24.261Z,3.68
2019-05-07T04:05:53.612Z,3.64
2019-05-07T04:08:23.778Z,3.74
2019-05-07T04:10:53.955Z,3.72
2019-05-07T04:13:24.286Z,3.77
2019-05-07T04:15:53.533Z,3.75
2019-05-07T04:18:23.688Z,3.79
2019-05-07T04:20:54.021Z,3.86
2019-05-07T04:23:23.526Z,3.87
2019-05-07T04:26:19.036Z,3.87
2019-05-07T04:28:53.706Z,3.97
2019-05-07T04:31:23.001Z,4.02
2019-05-07T04:33:53.338Z,4.05
2019-05-07T04:36:27.364Z,4.06
2019-05-07T04:38:56.627Z,4.05
2019-05-07T04:41:25.823Z,4.12
2019-05-07T04:43:54.725Z,4.15
2019-05-07T04:46:24.319Z,4.23
2019-05-07T04:48:53.313Z,4.30
2019-05-07T04:51:28.836Z,4.39
2019-05-07T04:53:57.471Z,4.37
2019-05-07T04:56:26.111Z,4.37
2019-05-07T04:58:55.130Z,4.37
2019-05-07T05:01:25.411Z,4.43
2019-05-07T05:03:54.639Z,4.55
2019-05-07T05:06:24.354Z,4.59
2019-05-07T05:08:56.074Z,4.68
2019-05-07T05:11:23.826Z,4.70
2019-05-07T05:13:53.455Z,4.69
2019-05-07T05:16:26.705Z,4.80
2019-05-07T05:18:56.737Z,4.90
2019-05-07T05:21:45.806Z,5.02
2019-05-07T05:24:19.184Z,5.10
2019-05-07T05:26:48.061Z,5.23
2019-05-07T05:29:17.083Z,5.26
2019-05-07T05:31:46.032Z,5.32
2019-05-07T05:34:15.176Z,5.40
2019-05-07T05:36:43.814Z,5.43
2019-05-07T05:39:13.318Z,5.52
2019-05-07T05:41:44.779Z,5.56
2019-05-07T05:44:19.347Z,5.56
2019-05-07T05:46:47.974Z,5.57
2019-05-07T05:49:16.619Z,5.70
2019-05-07T05:51:58.650Z,5.75
2019-05-07T05:54:42.452Z,5.92
2019-05-07T05:57:48.579Z,6.00
2019-05-07T06:00:43.274Z,6.17
2019-05-07T06:03:24.659Z,6.31
2019-05-07T06:06:07.905Z,6.31
2019-05-07T06:08:54.194Z,6.52
2019-05-07T06:11:42.934Z,6.52
2019-05-07T06:14:42.309Z,6.76
2019-05-07T06:17:24.661Z,6.81
2019-05-07T06:20:15.194Z,6.81
2019-05-07T06:23:06.160Z,6.87
2019-05-07T06:25:34.805Z,7.11
2019-05-07T06:28:03.741Z,7.11
2019-05-07T06:30:33.811Z,7.24
2019-05-07T06:33:02.925Z,7.35
2019-05-07T06:35:32.462Z,7.37
2019-05-07T06:38:02.860Z,7.41
2019-05-07T06:40:47.552Z,7.50
2019-05-07T06:43:33.803Z,7.62
2019-05-07T06:46:03.051Z,7.63
2019-05-07T06:48:42.054Z,7.62
2019-05-07T06:51:03.133Z,7.68
2019-05-07T06:53:33.605Z,7.65
2019-05-07T06:56:03.178Z,7.70
2019-05-07T06:58:57.206Z,7.79
2019-05-07T07:01:44.223Z,7.97
2019-05-07T07:04:22.341Z,7.86
2019-05-07T07:07:26.256Z,7.84
2019-05-07T07:10:02.713Z,7.85
2019-05-07T07:12:33.109Z,7.95
2019-05-07T07:15:02.732Z,8.17
2019-05-07T07:17:32.761Z,7.95
2019-05-07T07:20:02.309Z,7.89
2019-05-07T07:22:31.981Z,7.97
2019-05-07T07:25:02.881Z,8.09
2019-05-07T07:27:32.221Z,8.21
2019-05-07T07:30:13.680Z,8.28
2019-05-07T07:32:45.258Z,8.38
2019-05-07T07:35:15.601Z,8.27
2019-05-07T07:37:44.321Z,8.24
2019-05-07T07:40:32.714Z,8.31
2019-05-07T07:43:04.902Z,8.31
2019-05-07T07:45:32.655Z,8.51
2019-05-07T07:48:02.233Z,8.52
2019-05-07T07:50:33.011Z,8.52
2019-05-07T07:53:02.620Z,8.46
2019-05-07T07:55:37.551Z,8.52
2019-05-07T07:58:24.450Z,8.52
2019-05-07T08:01:02.850Z,8.42
2019-05-07T08:03:32.960Z,8.62
2019-05-07T08:06:02.258Z,8.95
2019-05-07T08:08:31.998Z,9.08
2019-05-07T08:11:02.404Z,9.08
2019-05-07T08:13:32.494Z,9.29
2019-05-07T08:16:02.519Z,9.23
2019-05-07T08:18:32.807Z,9.45
2019-05-07T08:21:02.563Z,9.48
2019-05-07T08:23:32.046Z,9.31
2019-05-07T08:26:02.509Z,9.26
2019-05-07T08:28:32.023Z,9.16
2019-05-07T08:31:26.431Z,8.96
2019-05-07T08:34:02.159Z,9.23
2019-05-07T08:36:33.153Z,9.23
2019-05-07T08:39:02.649Z,9.52
2019-05-07T08:41:32.019Z,9.70
2019-05-07T08:44:15.483Z,9.70
2019-05-07T08:47:03.800Z,9.54
2019-05-07T08:49:39.380Z,9.87
2019-05-07T08:52:03.967Z,9.85
2019-05-07T08:54:34.375Z,10.04
2019-05-07T08:57:03.460Z,9.91
2019-05-07T08:59:33.494Z,9.90
2019-05-07T09:02:03.117Z,9.81
2019-05-07T09:04:32.896Z,9.63
2019-05-07T09:07:02.615Z,9.60
2019-05-07T09:09:32.623Z,9.63
2019-05-07T09:12:02.981Z,9.65
2019-05-07T09:14:32.332Z,9.89
2019-05-07T09:17:02.500Z,9.82
2019-05-07T09:19:32.418Z,9.66
2019-05-07T09:22:02.288Z,9.81
2019-05-07T09:24:33.383Z,10.08
2019-05-07T09:27:12.043Z,10.22
2019-05-07T09:29:56.085Z,10.03
2019-05-07T09:32:33.394Z,10.26
2019-05-07T09:35:02.459Z,10.51
2019-05-07T09:37:32.705Z,9.99
2019-05-07T09:40:02.861Z,9.81
2019-05-07T09:42:33.271Z,9.92
2019-05-07T09:45:02.590Z,9.78
2019-05-07T09:47:32.495Z,10.03
2019-05-07T09:50:05.560Z,10.25
2019-05-07T09:52:32.842Z,10.34
2019-05-07T09:55:11.051Z,10.24
2019-05-07T09:57:34.666Z,10.50
2019-05-07T10:00:03.339Z,10.33
2019-05-07T10:02:32.306Z,10.47
2019-05-07T10:05:02.376Z,10.41
2019-05-07T10:07:32.472Z,10.80
2019-05-07T10:10:03.262Z,11.42
2019-05-07T10:12:42.059Z,11.63
2019-05-07T10:15:12.304Z,12.03
2019-05-07T10:17:46.992Z,11.65
2019-05-07T10:20:22.085Z,11.44
2019-05-07T10:22:47.936Z,11.85
2019-05-07T10:25:16.882Z,11.58
2019-05-07T10:27:45.606Z,11.15
2019-05-07T10:30:14.978Z,10.94
2019-05-07T10:32:43.612Z,10.96
2019-05-07T10:35:12.960Z,11.14
2019-05-07T10:37:42.528Z,11.88
2019-05-07T10:40:12.358Z,12.23
2019-05-07T10:42:43.045Z,11.83
2019-05-07T10:45:29.382Z,12.01
2019-05-07T10:48:17.034Z,11.79
2019-05-07T10:50:47.898Z,11.11
2019-05-07T10:53:16.799Z,10.86
2019-05-07T10:55:45.786Z,11.45
2019-05-07T10:58:14.529Z,11.25
2019-05-07T11:00:43.567Z,11.49
2019-05-07T11:03:12.771Z,11.68
2019-05-07T11:05:42.067Z,12.24
2019-05-07T11:08:10.832Z,12.53
2019-05-07T11:10:41.711Z,12.77
2019-05-07T11:13:12.742Z,12.68
2019-05-07T11:15:42.963Z,13.21
2019-05-07T11:18:27.312Z,13.58
2019-05-07T11:20:56.510Z,13.45
2019-05-07T11:23:25.107Z,13.07
2019-05-07T11:25:53.847Z,12.46
2019-05-07T11:28:22.829Z,11.88
2019-05-07T11:30:51.489Z,12.19
2019-05-07T11:33:22.035Z,12.23
2019-05-07T11:35:52.626Z,11.89
2019-05-07T11:38:24.578Z,11.70
2019-05-07T11:40:51.890Z,11.40
2019-05-07T11:43:27.903Z,11.60
2019-05-07T11:46:07.160Z,11.69
2019-05-07T11:48:40.013Z,11.48
2019-05-07T11:51:23.101Z,11.14
2019-05-07T11:54:12.366Z,11.13
2019-05-07T11:56:42.287Z,11.28
2019-05-07T11:59:13.417Z,11.30
2019-05-07T12:01:47.818Z,11.34
2019-05-07T12:04:15.602Z,11.60
2019-05-07T12:06:44.287Z,11.83
2019-05-07T12:09:13.027Z,12.31
2019-05-07T12:11:42.542Z,12.41
2019-05-07T12:14:12.310Z,12.88
2019-05-07T12:16:42.648Z,13.37
2019-05-07T12:19:12.670Z,13.21
2019-05-07T12:21:42.501Z,12.60
2019-05-07T12:24:12.872Z,12.01
2019-05-07T12:26:42.861Z,11.65
2019-05-07T12:29:11.951Z,12.29
2019-05-07T12:31:58.854Z,13.18
2019-05-07T12:34:34.754Z,13.46
2019-05-07T12:37:04.110Z,13.04
2019-05-07T12:39:33.000Z,13.52
2019-05-07T12:42:01.993Z,13.55
2019-05-07T12:44:32.049Z,14.09
2019-05-07T12:47:01.702Z,14.73
2019-05-07T12:49:32.329Z,14.32
2019-05-07T12:52:32.177Z,14.01
2019-05-07T12:55:32.379Z,13.23
2019-05-07T12:58:02.296Z,12.62
2019-05-07T13:01:08.654Z,12.78
2019-05-07T13:03:54.992Z,13.16
2019-05-07T13:06:23.698Z,13.39
2019-05-07T13:08:52.662Z,13.88
2019-05-07T13:11:22.172Z,13.53
2019-05-07T13:13:52.720Z,12.82
2019-05-07T13:16:22.046Z,12.52
2019-05-07T13:18:52.598Z,12.31
2019-05-07T13:21:22.570Z,12.22
2019-05-07T13:23:52.102Z,12.09
2019-05-07T13:26:24.348Z,12.85
2019-05-07T13:28:53.102Z,12.01
2019-05-07T13:31:22.836Z,11.74
2019-05-07T13:33:52.368Z,11.53
2019-05-07T13:36:22.051Z,11.41
2019-05-07T13:39:02.462Z,11.28
2019-05-07T13:41:51.834Z,10.98
2019-05-07T13:44:32.912Z,10.96
2019-05-07T13:47:21.828Z,10.80
2019-05-07T13:49:53.570Z,10.77
2019-05-07T13:52:22.146Z,10.87
2019-05-07T13:54:52.614Z,10.99
2019-05-07T13:57:22.667Z,11.01
2019-05-07T13:59:53.012Z,11.00
2019-05-07T14:02:23.682Z,11.19
2019-05-07T14:04:52.808Z,11.30
2019-05-07T14:07:21.912Z,11.25
2019-05-07T14:09:52.501Z,11.24
2019-05-07T14:12:23.001Z,11.16
2019-05-07T14:14:52.996Z,11.10
2019-05-07T14:17:22.070Z,11.00
2019-05-07T14:19:52.845Z,11.09
2019-05-07T14:22:22.601Z,11.29
2019-05-07T14:24:53.034Z,11.09
2019-05-07T14:27:21.966Z,11.40
2019-05-07T14:29:52.032Z,11.79
2019-05-07T14:32:46.294Z,12.14
2019-05-07T14:35:33.108Z,12.46
2019-05-07T14:38:05.963Z,12.84
2019-05-07T14:40:34.748Z,13.36
2019-05-07T14:43:12.570Z,13.35
2019-05-07T14:45:42.132Z,13.12
2019-05-07T14:48:12.300Z,12.62
2019-05-07T14:50:42.358Z,13.07
2019-05-07T14:53:12.080Z,14.21
2019-05-07T14:55:41.857Z,14.93
2019-05-07T14:58:12.364Z,15.40
2019-05-07T15:00:42.711Z,16.00
2019-05-07T15:03:12.472Z,15.73
2019-05-07T15:05:42.287Z,15.49
2019-05-07T15:08:14.151Z,16.28
2019-05-07T15:10:42.262Z,16.10
2019-05-07T15:13:12.740Z,16.37
2019-05-07T15:15:41.853Z,15.99
2019-05-07T15:18:19.895Z,14.96
2019-05-07T15:20:48.779Z,14.81
2019-05-07T15:23:25.763Z,15.17
2019-05-07T15:25:54.445Z,14.14
2019-05-07T15:28:23.454Z,13.79
2019-05-07T15:31:04.400Z,13.95
2019-05-07T15:33:33.018Z,14.24
2019-05-07T15:36:02.847Z,14.20
2019-05-07T15:38:32.531Z,13.54
2019-05-07T15:41:02.259Z,13.51
2019-05-07T15:43:32.316Z,13.19
2019-05-07T15:46:02.106Z,12.61
2019-05-07T15:48:32.687Z,12.11
2019-05-07T15:51:01.793Z,12.31
2019-05-07T15:53:45.338Z,12.01
2019-05-07T15:56:14.423Z,12.85
2019-05-07T15:58:43.026Z,13.43
2019-05-07T16:01:12.807Z,13.39
2019-05-07T16:03:43.306Z,12.99
2019-05-07T16:06:12.697Z,12.84
2019-05-07T16:08:49.363Z,12.68
2019-05-07T16:11:19.034Z,12.41
2019-05-07T16:14:09.029Z,12.22
2019-05-07T16:16:42.786Z,12.02
2019-05-07T16:19:15.426Z,11.72
2019-05-07T16:21:44.507Z,11.79
2019-05-07T16:24:13.168Z,11.44
2019-05-07T16:26:42.098Z,11.36
2019-05-07T16:29:13.235Z,11.48
2019-05-07T16:31:44.279Z,11.32
2019-05-07T16:34:13.312Z,11.38
2019-05-07T16:36:42.228Z,11.24
2019-05-07T16:39:12.136Z,11.30
2019-05-07T16:41:42.347Z,11.12
2019-05-07T16:44:12.227Z,11.09
2019-05-07T16:46:42.229Z,10.91
2019-05-07T16:49:12.009Z,10.98
2019-05-07T16:51:44.584Z,11.12
2019-05-07T16:54:12.392Z,11.25
2019-05-07T16:57:00.288Z,11.28
2019-05-07T16:59:28.915Z,11.32
2019-05-07T17:02:02.675Z,11.25
2019-05-07T17:04:32.023Z,11.84
2019-05-07T17:07:02.550Z,11.74
2019-05-07T17:09:32.248Z,12.27
2019-05-07T17:12:03.871Z,12.79
2019-05-07T17:14:33.101Z,13.30
2019-05-07T17:17:02.514Z,14.15
2019-05-07T17:19:32.076Z,14.13
2019-05-07T17:22:02.835Z,14.24
2019-05-07T17:24:33.020Z,14.02
2019-05-07T17:27:02.360Z,13.77
2019-05-07T17:29:32.171Z,13.36
2019-05-07T17:32:01.723Z,13.41
2019-05-07T17:34:31.295Z,13.38
2019-05-07T17:37:02.019Z,13.34
2019-05-07T17:39:32.182Z,12.87
2019-05-07T17:42:02.524Z,12.58
2019-05-07T17:44:32.346Z,12.79
2019-05-07T17:47:02.056Z,12.35
2019-05-07T17:49:32.797Z,12.54
2019-05-07T17:52:02.932Z,12.36
2019-05-07T17:54:31.964Z,12.18
2019-05-07T17:57:01.973Z,12.10
2019-05-07T17:59:32.135Z,12.00
2019-05-07T18:02:10.049Z,11.91
2019-05-07T18:04:50.488Z,11.68
2019-05-07T18:07:12.005Z,11.26
2019-05-07T18:09:42.467Z,11.03
2019-05-07T18:12:12.082Z,10.85
2019-05-07T18:14:42.362Z,10.93
2019-05-07T18:17:41.919Z,10.64
2019-05-07T18:20:12.716Z,10.52
2019-05-07T18:22:40.854Z,10.43
2019-05-07T18:25:09.965Z,10.17
2019-05-07T18:27:38.834Z,10.06
2019-05-07T18:30:07.834Z,9.93
2019-05-07T18:32:42.638Z,9.91
2019-05-07T18:35:12.630Z,9.70
2019-05-07T18:37:54.046Z,9.64
2019-05-07T18:40:22.859Z,9.47
2019-05-07T18:42:52.532Z,9.35
2019-05-07T18:45:21.995Z,9.43
2019-05-07T18:47:51.772Z,9.43
2019-05-07T18:50:22.533Z,9.31
2019-05-07T18:52:52.318Z,9.31
2019-05-07T18:55:22.682Z,9.31
2019-05-07T18:57:51.896Z,9.29
2019-05-07T19:00:27.254Z,9.19
2019-05-07T19:02:56.191Z,9.20
2019-05-07T19:05:25.199Z,9.13
2019-05-07T19:08:04.258Z,9.03
2019-05-07T19:10:24.704Z,9.02
2019-05-07T19:12:53.763Z,8.96
2019-05-07T19:15:22.501Z,8.89
2019-05-07T19:17:51.546Z,8.75
2019-05-07T19:20:21.817Z,8.71
2019-05-07T19:22:51.835Z,8.72
2019-05-07T19:25:21.126Z,8.72
2019-05-07T19:27:50.020Z,8.63
2019-05-07T19:30:19.337Z,8.55
2019-05-07T19:32:48.312Z,8.42
2019-05-07T19:35:17.417Z,8.39
2019-05-07T19:37:46.311Z,8.26
2019-05-07T19:40:15.001Z,8.20
2019-05-07T19:42:43.984Z,8.20
2019-05-07T19:45:12.885Z,8.13
2019-05-07T19:47:42.776Z,7.97
2019-05-07T19:50:12.537Z,7.89
2019-05-07T19:52:42.631Z,7.86
2019-05-07T19:55:12.018Z,7.90
2019-05-07T19:57:46.651Z,7.84
2019-05-07T20:00:17.177Z,7.92
2019-05-07T20:02:48.397Z,7.87
2019-05-07T20:05:17.415Z,7.78
2019-05-07T20:07:46.408Z,7.74
2019-05-07T20:10:19.293Z,7.66
2019-05-07T20:12:48.299Z,7.66
2019-05-07T20:15:17.601Z,7.61
2019-05-07T20:17:46.480Z,7.66
2019-05-07T20:20:17.450Z,7.64
2019-05-07T20:22:45.857Z,7.67
2019-05-07T20:25:18.977Z,7.63
2019-05-07T20:27:45.635Z,7.59
2019-05-07T20:30:14.342Z,7.54
2019-05-07T20:32:42.994Z,7.51
2019-05-07T20:35:11.721Z,7.52
2019-05-07T20:37:41.931Z,7.44
2019-05-07T20:40:12.227Z,7.38
2019-05-07T20:42:42.835Z,7.32
2019-05-07T20:45:12.328Z,7.04
2019-05-07T20:47:42.114Z,7.04
2019-05-07T20:50:12.753Z,7.05
2019-05-07T20:52:41.988Z,6.91
2019-05-07T20:55:33.221Z,6.81
2019-05-07T20:57:59.985Z,6.75
2019-05-07T21:00:29.514Z,6.65
2019-05-07T21:03:16.022Z,6.72
2019-05-07T21:05:44.724Z,6.66
2019-05-07T21:08:13.353Z,6.63
2019-05-07T21:10:42.815Z,6.64
2019-05-07T21:13:26.802Z,6.71
2019-05-07T21:15:42.420Z,6.72
2019-05-07T21:18:12.369Z,6.69
2019-05-07T21:20:42.227Z,6.69
2019-05-07T21:23:12.217Z,6.61
2019-05-07T21:25:45.502Z,6.61
2019-05-07T21:28:12.335Z,6.55
2019-05-07T21:30:42.693Z,6.51
2019-05-07T21:33:12.146Z,6.44
2019-05-07T21:35:42.865Z,6.33
2019-05-07T21:38:12.693Z,6.27
2019-05-07T21:40:42.891Z,6.11
2019-05-07T21:43:14.219Z,6.11
2019-05-07T21:45:43.105Z,6.07
2019-05-07T21:48:13.748Z,5.98
2019-05-07T21:50:42.536Z,5.87
2019-05-07T21:53:29.004Z,5.69
2019-05-07T21:56:08.475Z,5.69
2019-05-07T21:58:44.366Z,5.62
2019-05-07T22:01:16.818Z,5.62
2019-05-07T22:03:47.685Z,5.67
2019-05-07T22:06:16.318Z,5.50
2019-05-07T22:08:45.213Z,5.50
2019-05-07T22:11:13.928Z,5.57
2019-05-07T22:13:43.637Z,5.59
2019-05-07T22:16:13.274Z,5.59
2019-05-07T22:18:42.660Z,5.60
2019-05-07T22:21:12.429Z,5.60
2019-05-07T22:23:42.811Z,5.63
2019-05-07T22:26:20.281Z,5.57
2019-05-07T22:28:43.006Z,5.56
2019-05-07T22:31:23.142Z,5.46
2019-05-07T22:33:59.398Z,5.48
2019-05-07T22:36:28.619Z,5.45
2019-05-07T22:38:57.265Z,5.32
2019-05-07T22:41:26.196Z,5.32
2019-05-07T22:43:55.134Z,5.18
2019-05-07T22:46:23.791Z,5.18
2019-05-07T22:48:52.426Z,5.06
2019-05-07T22:51:22.818Z,5.06
2019-05-07T22:53:51.882Z,5.03
2019-05-07T22:56:33.864Z,4.86
2019-05-07T22:58:53.283Z,4.86
2019-05-07T23:01:22.727Z,4.81
2019-05-07T23:03:53.975Z,4.77
2019-05-07T23:06:23.118Z,4.74
2019-05-07T23:08:52.875Z,4.81
2019-05-07T23:11:22.843Z,4.79
2019-05-07T23:13:54.771Z,4.80
2019-05-07T23:16:23.279Z,4.85
2019-05-07T23:18:52.115Z,4.88
2019-05-07T23:21:24.317Z,4.88
2019-05-07T23:23:52.774Z,4.86
2019-05-07T23:26:23.332Z,4.86
2019-05-07T23:28:52.851Z,4.89
2019-05-07T23:31:22.858Z,4.87
2019-05-07T23:33:52.457Z,4.79
2019-05-07T23:36:22.416Z,4.73
2019-05-07T23:38:52.308Z,4.70
2019-05-07T23:41:30.288Z,4.64
2019-05-07T23:44:16.423Z,4.57
2019-05-07T23:46:45.463Z,4.54
2019-05-07T23:49:14.170Z,4.58
2019-05-07T23:51:42.886Z,4.57
2019-05-07T23:54:12.315Z,4.54
2019-05-07T23:56:42.745Z,4.50
2019-05-07T23:59:12.759Z,4.53
